createdAt,value
2022-11-15T00:02:10.521Z,6.1
2022-11-15T00:07:48.694Z,6.1
2022-11-15T00:13:22.643Z,6.1
2022-11-15T00:18:43.232Z,6.1
2022-11-15T00:24:10.482Z,6.2
2022-11-15T00:29:53.292Z,6.1
2022-11-15T00:35:29.687Z,6
2022-11-15T00:40:54.006Z,6
2022-11-15T00:46:33.017Z,6
2022-11-15T00:51:53.378Z,6
2022-11-15T00:57:21.082Z,6.1
2022-11-15T01:03:14.908Z,6.1
2022-11-15T01:08:40.475Z,6.2
2022-11-15T01:14:08.657Z,6.2
2022-11-15T01:19:51.186Z,6.2
2022-11-15T01:25:23.662Z,6.3
2022-11-15T01:30:39.346Z,6.4
2022-11-15T01:36:18.716Z,6.4
2022-11-15T01:41:43.080Z,6.3
2022-11-15T01:47:08.264Z,6.3
2022-11-15T01:52:57.158Z,6.3
2022-11-15T01:58:25.652Z,6.3
2022-11-15T02:03:46.060Z,6.3
2022-11-15T02:09:41.357Z,6.2
2022-11-15T02:15:10.800Z,6.2
2022-11-15T02:20:37.079Z,6.2
2022-11-15T02:25:55.296Z,6.1
2022-11-15T02:31:25.129Z,6.2
2022-11-15T02:37:11.254Z,6.1
2022-11-15T02:42:29.141Z,6.1
2022-11-15T02:48:26.372Z,6.2
2022-11-15T02:53:55.635Z,6.4
2022-11-15T02:59:24.237Z,6.4
2022-11-15T03:04:52.568Z,6.5
2022-11-15T03:10:10.356Z,6.5
2022-11-15T03:15:54.803Z,6.4
2022-11-15T03:21:38.951Z,6.5
2022-11-15T03:26:50.912Z,6.5
2022-11-15T03:32:28.247Z,6.5
2022-11-15T03:38:08.479Z,6.4
2022-11-15T03:43:35.583Z,6.4
2022-11-15T03:49:13.635Z,6.4
2022-11-15T03:54:55.186Z,6.3
2022-11-15T04:00:05.632Z,6.2
2022-11-15T04:05:46.342Z,6.2
2022-11-15T04:11:06.854Z,6.2
2022-11-15T04:16:56.751Z,6.3
2022-11-15T04:22:22.828Z,6.4
2022-11-15T04:28:07.147Z,6.4
2022-11-15T04:33:22.305Z,6.5
2022-11-15T04:39:00.245Z,6.5
2022-11-15T04:44:38.685Z,6.5
2022-11-15T04:49:56.572Z,6.5
2022-11-15T04:55:47.864Z,6.5
2022-11-15T05:01:11.699Z,6.4
2022-11-15T05:06:41.694Z,6.4
2022-11-15T05:11:59.841Z,6.4
2022-11-15T05:17:58.560Z,6.4
2022-11-15T05:23:11.962Z,6.5
2022-11-15T05:29:03.541Z,6.5
2022-11-15T05:34:29.272Z,6.5
2022-11-15T05:40:07.265Z,6.5
2022-11-15T05:45:20.229Z,6.5
2022-11-15T05:51:04.600Z,6.5
2022-11-15T05:56:20.587Z,6.5
2022-11-15T06:01:59.678Z,6.5
2022-11-15T06:07:23.962Z,6.5
2022-11-15T06:13:07.146Z,6.5
2022-11-15T06:18:51.318Z,6.5
2022-11-15T06:24:22.438Z,6.5
2022-11-15T06:29:58.624Z,6.6
2022-11-15T06:35:04.946Z,6.6
2022-11-15T06:40:39.177Z,6.7
2022-11-15T06:46:13.198Z,6.8
2022-11-15T06:52:04.975Z,6.8
2022-11-15T06:57:17.824Z,6.8
2022-11-15T07:03:10.663Z,6.8
2022-11-15T07:08:21.775Z,6.8
2022-11-15T07:14:07.339Z,6.7
2022-11-15T07:19:46.319Z,6.8
2022-11-15T07:30:28.840Z,7
2022-11-15T07:36:10.559Z,7.3
2022-11-15T07:41:34.383Z,7.4
2022-11-15T07:47:08.245Z,7.4
2022-11-15T07:52:50.076Z,7.3
2022-11-15T07:58:12.120Z,7.3
2022-11-15T08:03:57.140Z,7.3
2022-11-15T08:09:32.493Z,7.2
2022-11-15T08:14:50.557Z,7.2
2022-11-15T08:20:32.641Z,7.2
2022-11-15T08:26:10.382Z,7.2
2022-11-15T08:31:39.701Z,7.3
2022-11-15T08:36:58.125Z,7.3
2022-11-15T08:42:45.769Z,7.3
2022-11-15T08:48:08.013Z,7.4
2022-11-15T08:54:01.849Z,7.5
2022-11-15T08:59:26.264Z,7.6
2022-11-15T09:05:03.613Z,7.5
2022-11-15T09:10:12.272Z,7.5
2022-11-15T09:16:01.708Z,7.6
2022-11-15T09:21:25.225Z,7.6
2022-11-15T09:27:01.629Z,7.7
2022-11-15T09:32:50.715Z,7.7
2022-11-15T09:38:06.070Z,7.8
2022-11-15T09:43:47.184Z,7.8
2022-11-15T09:49:25.975Z,7.9
2022-11-15T09:54:59.310Z,7.9
2022-11-15T10:00:46.837Z,8
2022-11-15T10:05:54.949Z,8.2
2022-11-15T10:11:37.087Z,8.3
2022-11-15T10:17:07.997Z,8.2
2022-11-15T10:22:35.031Z,8.3
2022-11-15T10:28:05.538Z,8.3
2022-11-15T10:33:25.060Z,8.4
2022-11-15T10:38:53.879Z,8.4
2022-11-15T10:44:28.794Z,8.4
2022-11-15T10:50:20.867Z,8.5
2022-11-15T10:55:59.265Z,8.6
2022-11-15T11:01:05.284Z,8.9
2022-11-15T11:06:55.720Z,9
2022-11-15T11:18:00.774Z,9.1
2022-11-15T11:23:29.255Z,9.2
2022-11-15T11:29:17.389Z,9.2
2022-11-15T11:34:26.458Z,9.2
2022-11-15T11:40:09.259Z,9.4
2022-11-15T11:45:47.511Z,9.4
2022-11-15T11:51:14.736Z,9.5
2022-11-15T11:56:34.571Z,9.5
2022-11-15T12:02:08.787Z,9.5
2022-11-15T12:07:51.927Z,9.5
2022-11-15T12:13:22.747Z,9.5
2022-11-15T12:19:03.298Z,9.6
2022-11-15T12:24:31.296Z,9.7
2022-11-15T12:29:53.813Z,9.8
2022-11-15T12:35:51.781Z,9.8
2022-11-15T12:41:16.439Z,9.9
2022-11-15T12:46:32.176Z,9.9
2022-11-15T12:52:18.776Z,9.8
2022-11-15T12:58:02.906Z,9.9
2022-11-15T13:03:36.157Z,9.8
2022-11-15T13:08:48.814Z,9.9
2022-11-15T13:14:14.232Z,9.9
2022-11-15T13:19:57.948Z,10
2022-11-15T13:25:39.866Z,10
2022-11-15T13:31:12.679Z,10
2022-11-15T13:36:39.457Z,10
2022-11-15T13:41:57.862Z,10
2022-11-15T13:47:33.839Z,9.9
2022-11-15T13:53:31.553Z,10
2022-11-15T13:59:03.531Z,9.9
2022-11-15T14:04:23.304Z,10
2022-11-15T14:09:46.080Z,9.9
2022-11-15T14:15:29.728Z,9.9
2022-11-15T14:21:00.627Z,9.9
2022-11-15T14:26:20.263Z,9.9
2022-11-15T14:31:57.239Z,10
2022-11-15T14:37:29.166Z,9.9
2022-11-15T14:42:59.226Z,9.9
2022-11-15T14:48:55.021Z,9.9
2022-11-15T14:54:16.508Z,9.9
2022-11-15T14:59:50.388Z,9.9
2022-11-15T15:05:25.512Z,9.8
2022-11-15T15:10:45.906Z,9.7
2022-11-15T15:16:32.358Z,9.7
2022-11-15T15:21:47.679Z,9.5
2022-11-15T15:27:37.902Z,9.5
2022-11-15T15:33:18.789Z,9.5
2022-11-15T15:38:40.201Z,9.4
2022-11-15T15:44:24.117Z,9.4
2022-11-15T15:49:35.807Z,9.4
2022-11-15T15:55:12.892Z,9.3
2022-11-15T16:00:46.161Z,9.3
2022-11-15T16:06:19.618Z,9.2
2022-11-15T16:12:08.250Z,9.1
2022-11-15T16:17:34.052Z,9.1
2022-11-15T16:23:08.637Z,9
2022-11-15T16:28:35.112Z,8.9
2022-11-15T16:34:03.899Z,8.9
2022-11-15T16:39:29.060Z,8.9
2022-11-15T16:45:06.873Z,8.8
2022-11-15T16:50:49.297Z,8.8
2022-11-15T16:56:11.674Z,8.9
2022-11-15T17:01:42.689Z,8.9
2022-11-15T17:07:14.160Z,8.9
2022-11-15T17:12:55.752Z,9
2022-11-15T17:18:37.790Z,8.9
2022-11-15T17:24:03.418Z,8.9
2022-11-15T17:29:41.837Z,8.7
2022-11-15T17:35:08.204Z,8.5
2022-11-15T17:40:30.954Z,8.6
2022-11-15T17:45:57.613Z,8.6
2022-11-15T17:51:30.571Z,8.6
2022-11-15T17:57:15.982Z,8.6
2022-11-15T18:02:32.276Z,8.6
2022-11-15T18:08:29.062Z,8.6
2022-11-15T18:13:52.464Z,8.6
2022-11-15T18:19:29.517Z,8.5
2022-11-15T18:24:55.069Z,8.4
2022-11-15T18:30:33.253Z,8.4
2022-11-15T18:36:02.800Z,8.4
2022-11-15T18:41:21.542Z,8.4
2022-11-15T18:47:02.109Z,8.5
2022-11-15T18:52:30.690Z,8.6
2022-11-15T18:58:21.565Z,8.7
2022-11-15T19:03:40.561Z,8.6
2022-11-15T19:09:09.585Z,8.7
2022-11-15T19:14:57.677Z,8.7
2022-11-15T19:20:32.367Z,8.7
2022-11-15T19:25:48.244Z,8.7
2022-11-15T19:31:37.344Z,8.7
2022-11-15T19:37:02.225Z,8.6
2022-11-15T19:42:26.654Z,8.6
2022-11-15T19:47:47.846Z,8.6
2022-11-15T19:53:41.109Z,8.6
2022-11-15T19:59:15.463Z,8.7
2022-11-15T20:04:41.095Z,8.7
2022-11-15T20:10:21.917Z,8.7
2022-11-15T20:15:30.442Z,8.7
2022-11-15T20:21:06.275Z,8.7
2022-11-15T20:26:51.194Z,8.7
2022-11-15T20:32:10.400Z,8.7
2022-11-15T20:37:38.813Z,8.7
2022-11-15T20:43:16.924Z,8.7
2022-11-15T20:49:00.413Z,8.7
2022-11-15T20:54:42.990Z,8.7
2022-11-15T21:00:12.189Z,8.7
2022-11-15T21:05:42.270Z,8.8
2022-11-15T21:10:56.157Z,8.8
2022-11-15T21:16:38.793Z,8.8
2022-11-15T21:22:22.470Z,8.8
2022-11-15T21:27:55.307Z,8.7
2022-11-15T21:33:30.630Z,8.6
2022-11-15T21:39:00.504Z,8.6
2022-11-15T21:44:17.666Z,8.6
2022-11-15T21:50:07.359Z,8.5
2022-11-15T21:55:38.388Z,8.6
2022-11-15T22:01:05.521Z,8.6
2022-11-15T22:06:47.409Z,8.6
2022-11-15T22:12:09.488Z,8.6
2022-11-15T22:17:32.774Z,8.6
2022-11-15T22:23:19.799Z,8.6
2022-11-15T22:28:52.995Z,8.6
2022-11-15T22:34:05.624Z,8.7
2022-11-15T22:39:47.937Z,8.6
2022-11-15T22:45:19.642Z,8.6
2022-11-15T22:50:46.069Z,8.6
2022-11-15T22:56:24.289Z,8.6
2022-11-15T23:02:01.821Z,8.6
2022-11-15T23:07:44.038Z,8.6
2022-11-15T23:13:03.810Z,8.6
2022-11-15T23:18:38.806Z,8.6
2022-11-15T23:24:18.398Z,8.5
2022-11-15T23:29:31.967Z,8.6
2022-11-15T23:35:26.034Z,8.6
2022-11-15T23:40:42.908Z,8.6
2022-11-15T23:46:28.385Z,8.6
2022-11-15T23:51:56.928Z,8.6
2022-11-15T23:57:11.424Z,8.6
